Time;durP1;ratioP1;P1;durP2;ratioP2;P2;SDS_P1;SDS_P2;PMS_P1;PMS_P2;Temp;Humidity;BMP_temperature;BMP_pressure;BME280_temperature;BME280_humidity;BME280_pressure;Samples;Min_cycle;Max_cycle;Signal;HPM_P1;HPM_P2
2022/03/16 00:00:19;;;;;;;7.57;3.22;;;0.50;99.90;;;;;;4919318;29;20761;-89
2022/03/16 00:02:48;;;;;;;6.47;3.00;;;0.50;99.90;;;;;;4919258;29;20393;-90
2022/03/16 00:05:17;;;;;;;7.57;3.28;;;0.50;99.90;;;;;;4919554;29;20401;-90
2022/03/16 00:07:45;;;;;;;6.75;3.03;;;0.50;99.90;;;;;;4919200;29;20859;-89
2022/03/16 00:10:13;;;;;;;6.47;3.25;;;0.40;99.90;;;;;;4919394;29;20406;-90
2022/03/16 00:12:42;;;;;;;5.95;3.15;;;0.40;99.90;;;;;;4935113;29;20406;-89
2022/03/16 00:15:10;;;;;;;7.07;3.10;;;0.40;99.90;;;;;;4919202;29;20405;-89
2022/03/16 00:17:38;;;;;;;6.13;3.25;;;0.40;99.90;;;;;;4935095;29;20481;-89
2022/03/16 00:20:06;;;;;;;6.55;3.50;;;0.30;99.90;;;;;;4919069;29;20405;-90
2022/03/16 00:22:34;;;;;;;6.50;3.35;;;0.40;99.90;;;;;;4919342;29;20453;-89
2022/03/16 00:25:01;;;;;;;5.13;2.93;;;0.40;99.90;;;;;;4934753;29;20457;-90
2022/03/16 00:27:29;;;;;;;5.10;2.78;;;0.40;99.90;;;;;;4918884;29;20537;-89
2022/03/16 00:29:57;;;;;;;6.82;3.25;;;0.40;99.90;;;;;;4950784;29;20402;-91
2022/03/16 00:32:25;;;;;;;5.75;3.05;;;0.30;99.90;;;;;;4918960;29;20443;-89
2022/03/16 00:34:53;;;;;;;6.63;3.20;;;0.30;99.90;;;;;;4918916;29;20455;-90
2022/03/16 00:37:20;;;;;;;5.55;2.88;;;0.30;99.90;;;;;;4934511;29;20412;-90
2022/03/16 00:39:48;;;;;;;6.82;3.20;;;0.20;99.90;;;;;;4936327;29;20401;-89
2022/03/16 00:42:15;;;;;;;6.95;3.33;;;0.20;99.90;;;;;;4934575;29;20397;-89
2022/03/16 00:44:43;;;;;;;7.07;3.47;;;0.20;99.90;;;;;;4918716;29;20916;-90
2022/03/16 00:47:10;;;;;;;6.85;2.97;;;0.20;99.90;;;;;;4934618;29;20896;-89
2022/03/16 00:49:38;;;;;;;7.13;3.70;;;0.20;99.90;;;;;;4919127;29;20401;-89
2022/03/16 00:52:06;;;;;;;7.80;3.53;;;0.20;99.90;;;;;;4918831;29;20405;-90
2022/03/16 00:54:34;;;;;;;7.00;3.33;;;0.10;99.90;;;;;;4934352;29;20398;-90
2022/03/16 00:57:02;;;;;;;5.90;2.97;;;0.10;99.90;;;;;;4934608;29;20510;-90
2022/03/16 00:59:29;;;;;;;8.15;3.55;;;0.10;99.90;;;;;;4934291;29;20405;-89
2022/03/16 01:01:57;;;;;;;6.80;3.30;;;0.10;99.90;;;;;;4918456;29;20402;-90
2022/03/16 01:04:25;;;;;;;6.22;2.97;;;0.10;99.90;;;;;;4934534;29;20437;-90
2022/03/16 01:06:54;;;;;;;5.97;3.33;;;0.00;99.90;;;;;;4949334;28;20410;-90
2022/03/16 01:09:21;;;;;;;6.45;3.33;;;0.00;99.90;;;;;;4918353;29;20433;-90
2022/03/16 01:11:49;;;;;;;7.38;3.33;;;-0.10;99.90;;;;;;4934271;29;20906;-89
2022/03/16 01:14:17;;;;;;;6.93;3.08;;;-0.10;99.90;;;;;;4918618;29;20433;-89
2022/03/16 01:16:45;;;;;;;6.28;3.42;;;-0.20;99.90;;;;;;4934327;29;20414;-89
2022/03/16 01:19:14;;;;;;;7.05;3.83;;;-0.10;99.90;;;;;;4919059;29;20406;-89
2022/03/16 01:21:44;;;;;;;6.93;3.45;;;-0.10;99.90;;;;;;4918599;29;20449;-89
2022/03/16 01:24:11;;;;;;;6.38;3.58;;;-0.10;99.90;;;;;;4949857;29;20402;-90
2022/03/16 01:26:39;;;;;;;9.43;3.45;;;-0.10;99.90;;;;;;4917995;29;20928;-90
2022/03/16 01:29:07;;;;;;;6.35;3.30;;;-0.10;99.90;;;;;;4933997;29;20441;-90
2022/03/16 01:31:35;;;;;;;5.43;3.10;;;-0.10;99.90;;;;;;4933944;29;20430;-89
2022/03/16 01:34:03;;;;;;;7.23;3.80;;;-0.20;99.90;;;;;;4918024;29;20409;-90
2022/03/16 01:36:31;;;;;;;8.30;3.53;;;-0.20;99.90;;;;;;4933912;29;20414;-89
2022/03/16 01:38:58;;;;;;;6.95;2.97;;;-0.20;99.90;;;;;;4933913;29;20398;-89
2022/03/16 01:41:26;;;;;;;7.43;3.30;;;-0.30;99.90;;;;;;4933632;29;20455;-89
2022/03/16 01:43:55;;;;;;;6.18;3.30;;;-0.40;99.90;;;;;;4918124;29;20402;-89
2022/03/16 01:46:23;;;;;;;6.55;3.28;;;-0.40;99.90;;;;;;4933852;29;20409;-89
2022/03/16 01:48:51;;;;;;;6.47;3.55;;;-0.40;99.90;;;;;;4918054;29;20934;-89
2022/03/16 01:51:20;;;;;;;7.15;3.22;;;-0.40;99.90;;;;;;4933750;29;20465;-88
2022/03/16 01:53:49;;;;;;;6.47;3.28;;;-0.40;99.90;;;;;;4933832;29;20403;-89
2022/03/16 01:56:17;;;;;;;7.43;3.70;;;-0.40;99.90;;;;;;4933692;29;20405;-89
2022/03/16 01:58:45;;;;;;;5.97;3.27;;;-0.40;99.90;;;;;;4914276;29;20433;-90
2022/03/16 02:01:16;;;;;;;7.22;3.33;;;-0.40;99.90;;;;;;4899255;29;20411;-89
2022/03/16 02:03:44;;;;;;;6.35;3.35;;;-0.30;99.90;;;;;;4899308;29;20422;-89
2022/03/16 02:06:12;;;;;;;6.35;3.20;;;-0.40;99.90;;;;;;4899123;29;20463;-90
2022/03/16 02:08:43;;;;;;;8.25;3.63;;;-0.40;99.90;;;;;;4914742;29;20423;-89
2022/03/16 02:11:10;;;;;;;5.93;3.50;;;-0.40;99.90;;;;;;4899029;29;20403;-89
2022/03/16 02:13:38;;;;;;;7.47;4.07;;;-0.40;99.90;;;;;;4930388;29;20570;-89
2022/03/16 02:16:07;;;;;;;8.13;3.35;;;-0.40;99.90;;;;;;4898844;29;20965;-89
2022/03/16 02:18:35;;;;;;;8.27;3.70;;;-0.40;99.90;;;;;;4933266;29;20410;-89
2022/03/16 02:21:06;;;;;;;8.73;4.03;;;-0.40;99.90;;;;;;4902263;29;20420;-89
2022/03/16 02:23:34;;;;;;;6.38;3.40;;;-0.50;99.90;;;;;;4918321;29;20766;-90
2022/03/16 02:26:02;;;;;;;8.25;3.55;;;-0.50;99.90;;;;;;4917665;29;20490;-90
2022/03/16 02:28:30;;;;;;;9.15;3.67;;;-0.50;99.90;;;;;;4917779;29;20419;-89
2022/03/16 02:30:59;;;;;;;8.25;4.30;;;-0.50;99.90;;;;;;4933554;29;20438;-90
2022/03/16 02:33:26;;;;;;;8.32;4.18;;;-0.60;99.90;;;;;;4917786;29;20918;-89
2022/03/16 02:35:54;;;;;;;7.37;3.70;;;-0.60;99.90;;;;;;4918063;29;20443;-91
2022/03/16 02:38:21;;;;;;;8.98;3.72;;;-0.60;99.90;;;;;;4917647;29;20459;-90
2022/03/16 02:40:49;;;;;;;8.38;3.72;;;-0.60;99.90;;;;;;4902049;29;20824;-89
2022/03/16 02:43:17;;;;;;;7.43;3.60;;;-0.60;99.90;;;;;;4901940;29;20430;-89
2022/03/16 02:45:44;;;;;;;6.63;3.37;;;-0.60;99.90;;;;;;4917616;29;20395;-90
2022/03/16 02:48:12;;;;;;;6.57;3.40;;;-0.60;99.90;;;;;;4901978;29;20418;-89
2022/03/16 02:50:40;;;;;;;7.20;3.70;;;-0.60;99.90;;;;;;4917432;29;20426;-89
2022/03/16 02:53:08;;;;;;;7.60;3.85;;;-0.70;99.90;;;;;;4901944;29;20407;-89
2022/03/16 02:55:45;;;;;;;8.60;3.58;;;-0.70;99.90;;;;;;4918436;29;20891;-89
2022/03/16 02:58:13;;;;;;;6.28;3.33;;;-0.70;99.90;;;;;;4917188;29;20534;-89
2022/03/16 03:00:42;;;;;;;7.28;3.60;;;-0.80;99.90;;;;;;4901767;29;20511;-90
2022/03/16 03:03:10;;;;;;;8.05;3.95;;;-0.80;99.90;;;;;;4917287;29;20404;-88
2022/03/16 03:05:38;;;;;;;7.38;3.88;;;-0.80;99.90;;;;;;4901903;29;20451;-89
2022/03/16 03:08:06;;;;;;;7.25;3.63;;;-0.80;99.90;;;;;;4901435;29;20416;-89
2022/03/16 03:10:33;;;;;;;6.47;3.50;;;-0.90;99.90;;;;;;4932863;29;20493;-89
2022/03/16 03:13:01;;;;;;;8.43;3.78;;;-0.90;99.90;;;;;;4920285;29;20421;-89
2022/03/16 03:15:28;;;;;;;8.18;3.67;;;-0.90;99.90;;;;;;4916753;29;20412;-89
2022/03/16 03:17:56;;;;;;;6.85;3.38;;;-0.90;99.90;;;;;;4901388;29;20411;-88
2022/03/16 03:20:23;;;;;;;8.95;4.05;;;-0.90;99.90;;;;;;4916691;29;20490;-89
2022/03/16 03:22:51;;;;;;;8.13;3.83;;;-0.90;99.90;;;;;;4916852;29;20399;-89
2022/03/16 03:25:18;;;;;;;7.68;3.85;;;-0.90;99.90;;;;;;4912038;29;20457;-88
2022/03/16 03:27:46;;;;;;;7.68;3.70;;;-0.90;99.90;;;;;;4916470;29;20758;-89
2022/03/16 03:30:14;;;;;;;7.57;3.88;;;-1.00;99.90;;;;;;4919400;29;20402;-89
2022/03/16 03:32:42;;;;;;;6.63;3.80;;;-1.00;99.90;;;;;;4938291;29;20401;-90
2022/03/16 03:35:09;;;;;;;9.10;4.13;;;-1.00;99.90;;;;;;4935614;29;20949;-89
2022/03/16 03:37:37;;;;;;;7.43;3.60;;;-1.10;99.90;;;;;;4935520;29;20485;-89
2022/03/16 03:40:06;;;;;;;8.70;4.10;;;-1.00;99.90;;;;;;4935431;29;20405;-89
2022/03/16 03:42:33;;;;;;;9.57;3.80;;;-1.00;99.90;;;;;;4936599;29;20500;-89
2022/03/16 03:45:01;;;;;;;7.90;4.13;;;-1.10;99.90;;;;;;4935458;29;20428;-88
2022/03/16 03:47:29;;;;;;;6.45;3.50;;;-1.20;99.90;;;;;;4919588;29;20395;-90
2022/03/16 03:49:56;;;;;;;7.75;3.70;;;-1.20;99.90;;;;;;4919509;29;20402;-88
2022/03/16 03:52:24;;;;;;;7.15;3.88;;;-1.20;99.90;;;;;;4930661;29;20412;-89
2022/03/16 03:54:51;;;;;;;8.67;4.40;;;-1.20;99.90;;;;;;4927657;29;20486;-88
2022/03/16 03:57:19;;;;;;;8.10;3.80;;;-1.20;99.90;;;;;;4931846;29;20957;-88
2022/03/16 03:59:46;;;;;;;8.07;3.83;;;-1.30;99.90;;;;;;4932203;29;20422;-89
2022/03/16 04:02:14;;;;;;;8.52;3.80;;;-1.30;99.90;;;;;;4917658;29;20902;-89
2022/03/16 04:04:41;;;;;;;9.77;4.15;;;-1.40;99.90;;;;;;4900300;29;20411;-88
2022/03/16 04:07:10;;;;;;;8.00;3.90;;;-1.40;99.90;;;;;;4915900;29;20981;-88
2022/03/16 04:09:38;;;;;;;6.38;3.70;;;-1.40;99.90;;;;;;4900174;29;20415;-89
2022/03/16 04:12:06;;;;;;;9.13;3.53;;;-1.40;99.90;;;;;;4900322;29;20463;-89
2022/03/16 04:14:33;;;;;;;8.85;3.92;;;-1.40;99.90;;;;;;4915675;29;20496;-89
2022/03/16 04:17:01;;;;;;;7.70;4.28;;;-1.40;99.90;;;;;;4900269;29;20396;-88
2022/03/16 04:19:29;;;;;;;9.20;3.90;;;-1.50;99.90;;;;;;4915856;29;20435;-89
2022/03/16 04:21:57;;;;;;;7.68;3.80;;;-1.50;99.90;;;;;;4915790;29;20918;-89
2022/03/16 04:24:24;;;;;;;10.07;3.95;;;-1.50;99.90;;;;;;4916228;29;20416;-89
2022/03/16 04:26:53;;;;;;;7.80;3.53;;;-1.50;99.90;;;;;;4915708;29;20410;-89
2022/03/16 04:29:21;;;;;;;8.93;3.95;;;-1.50;99.90;;;;;;4915819;29;20411;-88
2022/03/16 04:31:48;;;;;;;8.67;3.83;;;-1.60;99.90;;;;;;4931457;29;20403;-90
2022/03/16 04:34:16;;;;;;;8.52;4.18;;;-1.50;99.90;;;;;;4915718;29;20542;-89
2022/03/16 04:36:43;;;;;;;8.07;3.60;;;-1.60;99.90;;;;;;4915676;29;20396;-90
2022/03/16 04:39:12;;;;;;;8.38;4.00;;;-1.60;99.90;;;;;;4931205;29;20403;-89
2022/03/16 04:41:39;;;;;;;8.53;3.80;;;-1.70;99.90;;;;;;4915447;29;20458;-90
2022/03/16 04:44:08;;;;;;;9.50;4.00;;;-1.70;99.90;;;;;;4916720;29;20455;-89
2022/03/16 04:46:35;;;;;;;8.50;4.22;;;-1.60;99.90;;;;;;4900104;29;20411;-90
2022/03/16 04:49:03;;;;;;;7.40;3.92;;;-1.70;99.90;;;;;;4934214;29;20449;-90
2022/03/16 04:51:30;;;;;;;7.65;3.78;;;-1.60;99.90;;;;;;4934372;29;20413;-89
2022/03/16 04:53:58;;;;;;;7.43;3.78;;;-1.60;99.90;;;;;;4950338;29;20406;-89
2022/03/16 04:56:26;;;;;;;7.10;4.00;;;-1.70;99.90;;;;;;4950097;29;20401;-89
2022/03/16 04:58:53;;;;;;;9.63;4.07;;;-1.70;99.90;;;;;;4950089;29;20402;-89
2022/03/16 05:01:21;;;;;;;7.23;3.50;;;-1.70;99.90;;;;;;4963321;28;20433;-89
2022/03/16 05:03:48;;;;;;;8.35;4.20;;;-1.70;99.90;;;;;;4913050;29;20394;-89
2022/03/16 05:06:16;;;;;;;8.65;4.00;;;-1.70;99.90;;;;;;4918384;29;20909;-89
2022/03/16 05:08:45;;;;;;;8.05;4.00;;;-1.80;99.90;;;;;;4934035;29;20414;-90
2022/03/16 05:11:13;;;;;;;8.27;3.92;;;-1.80;99.90;;;;;;4936582;29;20473;-89
2022/03/16 05:13:41;;;;;;;9.15;4.03;;;-1.90;99.90;;;;;;4965997;28;20406;-89
2022/03/16 05:16:09;;;;;;;9.52;4.10;;;-1.80;99.90;;;;;;4949667;29;20413;-89
2022/03/16 05:18:40;;;;;;;7.18;3.47;;;-1.70;99.90;;;;;;4949942;29;20406;-89
2022/03/16 05:21:08;;;;;;;9.20;3.78;;;-1.70;99.90;;;;;;4934053;29;20409;-90
2022/03/16 05:23:36;;;;;;;10.68;4.10;;;-1.70;99.90;;;;;;4917598;29;20412;-89
2022/03/16 05:26:04;;;;;;;7.65;4.25;;;-1.80;99.90;;;;;;4949579;29;20405;-89
2022/03/16 05:28:31;;;;;;;7.47;3.50;;;-1.80;99.90;;;;;;4949988;28;20417;-89
2022/03/16 05:30:59;;;;;;;8.65;4.32;;;-1.70;99.90;;;;;;4949749;29;20433;-89
2022/03/16 05:33:27;;;;;;;7.85;3.88;;;-1.80;99.90;;;;;;4950042;29;20448;-90
2022/03/16 05:35:54;;;;;;;7.75;3.85;;;-1.80;99.90;;;;;;4949848;29;20904;-90
2022/03/16 05:38:21;;;;;;;7.82;4.25;;;-1.80;99.90;;;;;;4949744;29;20410;-89
2022/03/16 05:40:49;;;;;;;7.88;3.78;;;-1.80;99.90;;;;;;4949556;29;20413;-90
2022/03/16 05:43:17;;;;;;;9.63;4.00;;;-1.70;99.90;;;;;;4949799;29;20413;-89
2022/03/16 05:45:44;;;;;;;6.85;3.90;;;-1.80;99.90;;;;;;4949565;29;20813;-89
2022/03/16 05:48:12;;;;;;;8.73;4.45;;;-1.80;99.90;;;;;;4949525;29;20405;-90
2022/03/16 05:50:44;;;;;;;16.33;7.15;;;-1.80;99.90;;;;;;4949269;29;20408;-90
2022/03/16 05:53:13;;;;;;;11.75;5.90;;;-1.80;99.90;;;;;;4952161;28;20500;-90
2022/03/16 05:55:41;;;;;;;11.60;5.32;;;-1.70;99.90;;;;;;4953414;29;20952;-89
2022/03/16 05:58:09;;;;;;;14.35;7.70;;;-1.70;99.90;;;;;;4953056;29;20465;-88
2022/03/16 06:00:39;;;;;;;14.18;6.10;;;-1.60;99.90;;;;;;4969144;28;20877;-88
2022/03/16 06:03:07;;;;;;;12.73;6.20;;;-1.50;99.90;;;;;;4938293;29;20418;-89
2022/03/16 06:05:34;;;;;;;12.80;6.50;;;-1.50;99.90;;;;;;4936392;29;20874;-88
2022/03/16 06:08:02;;;;;;;15.43;7.43;;;-1.50;99.90;;;;;;4936753;29;20406;-88
2022/03/16 06:10:30;;;;;;;15.88;7.93;;;-1.40;99.90;;;;;;4921313;29;20884;-88
2022/03/16 06:13:02;;;;;;;14.20;6.07;;;-1.40;99.90;;;;;;4936323;29;20418;-88
2022/03/16 06:15:37;;;;;;;21.10;9.73;;;-1.40;99.90;;;;;;4936710;29;20461;-88
2022/03/16 06:18:04;;;;;;;10.98;5.68;;;-1.40;99.90;;;;;;4937700;29;20449;-87
2022/03/16 06:20:33;;;;;;;18.00;9.18;;;-1.30;99.90;;;;;;4936498;29;20401;-89
2022/03/16 06:23:02;;;;;;;12.07;6.43;;;-1.30;99.90;;;;;;4937720;29;20390;-88
2022/03/16 06:25:35;;;;;;;11.93;5.65;;;-1.20;99.90;;;;;;4918486;29;20827;-89
2022/03/16 06:28:03;;;;;;;12.57;5.57;;;-1.10;99.90;;;;;;4917977;29;20400;-88
2022/03/16 06:30:31;;;;;;;13.38;6.57;;;-1.10;99.90;;;;;;4946001;29;20803;-88
2022/03/16 06:32:58;;;;;;;11.80;5.80;;;-1.10;99.90;;;;;;4936509;29;20402;-88
2022/03/16 06:35:26;;;;;;;12.70;6.60;;;-1.00;99.90;;;;;;4935954;29;20405;-88
2022/03/16 06:37:54;;;;;;;12.97;6.17;;;-1.00;99.90;;;;;;4936701;29;20406;-88
2022/03/16 06:40:21;;;;;;;11.60;5.38;;;-0.90;99.90;;;;;;4936476;29;20402;-89
2022/03/16 06:42:56;;;;;;;9.93;5.57;;;-0.90;99.90;;;;;;4936852;29;20581;-88
2022/03/16 06:45:28;;;;;;;12.50;5.75;;;-0.90;99.90;;;;;;4936330;29;20498;-88
2022/03/16 06:47:58;;;;;;;12.68;6.18;;;-0.80;99.90;;;;;;4936387;29;20440;-88
2022/03/16 06:50:27;;;;;;;12.32;5.95;;;-0.80;99.90;;;;;;4936267;29;20414;-89
2022/03/16 06:52:57;;;;;;;10.95;5.50;;;-0.70;99.90;;;;;;4936548;29;20393;-88
2022/03/16 06:55:26;;;;;;;10.55;5.68;;;-0.70;99.90;;;;;;4936159;29;20409;-88
2022/03/16 06:57:54;;;;;;;10.90;5.88;;;-0.70;99.90;;;;;;4936264;29;20809;-89
2022/03/16 07:00:22;;;;;;;12.00;5.60;;;-0.60;99.90;;;;;;4933169;29;20414;-88
2022/03/16 07:03:00;;;;;;;12.85;5.80;;;-0.60;99.90;;;;;;4917303;29;20443;-89
2022/03/16 07:05:38;;;;;;;11.38;6.00;;;-0.60;99.90;;;;;;4916425;29;20504;-88
2022/03/16 07:08:08;;;;;;;11.88;5.88;;;-0.50;99.90;;;;;;4901324;29;20815;-88
2022/03/16 07:10:38;;;;;;;10.98;5.55;;;-0.50;99.90;;;;;;4932699;29;20447;-89
2022/03/16 07:13:11;;;;;;;11.52;5.72;;;-0.40;99.90;;;;;;4902043;29;20523;-88
2022/03/16 07:15:41;;;;;;;10.23;5.90;;;-0.40;99.90;;;;;;4918072;29;20402;-89
2022/03/16 07:18:09;;;;;;;11.32;5.68;;;-0.30;99.90;;;;;;4916989;29;20403;-88
2022/03/16 07:20:37;;;;;;;10.65;5.50;;;-0.30;99.90;;;;;;4932614;29;20400;-88
2022/03/16 07:23:11;;;;;;;12.27;6.30;;;-0.20;99.90;;;;;;4924757;29;20407;-89
2022/03/16 07:25:48;;;;;;;13.40;5.68;;;-0.20;99.90;;;;;;4916640;29;20407;-89
2022/03/16 07:28:17;;;;;;;11.50;5.50;;;-0.20;99.90;;;;;;4932501;29;20494;-89
2022/03/16 07:30:45;;;;;;;11.40;6.10;;;-0.10;99.90;;;;;;4916713;29;20399;-88
2022/03/16 07:33:13;;;;;;;12.05;6.20;;;-0.10;99.90;;;;;;4924198;29;20873;-87
2022/03/16 07:35:41;;;;;;;11.52;6.10;;;0.00;99.90;;;;;;4940260;29;20417;-88
2022/03/16 07:38:08;;;;;;;11.77;6.30;;;0.00;99.90;;;;;;4937402;29;20822;-89
2022/03/16 07:40:37;;;;;;;13.35;6.25;;;0.00;99.90;;;;;;4948488;29;20410;-88
2022/03/16 07:43:06;;;;;;;12.52;6.53;;;0.10;99.90;;;;;;4916368;29;20797;-88
2022/03/16 07:45:34;;;;;;;12.20;6.55;;;0.10;99.90;;;;;;4900563;29;20409;-86
2022/03/16 07:48:02;;;;;;;12.70;5.47;;;0.20;99.90;;;;;;4916228;29;20459;-88
2022/03/16 07:50:30;;;;;;;11.55;5.47;;;0.40;99.90;;;;;;4914008;29;20414;-88
2022/03/16 07:52:58;;;;;;;12.30;5.90;;;0.50;99.90;;;;;;4951058;29;20912;-89
2022/03/16 07:55:27;;;;;;;12.93;6.32;;;0.50;99.90;;;;;;4950896;29;20908;-89
2022/03/16 07:57:55;;;;;;;11.53;6.17;;;0.60;99.90;;;;;;4965740;28;20409;-89
2022/03/16 08:00:24;;;;;;;15.40;6.87;;;0.70;99.90;;;;;;4936859;29;20904;-89
2022/03/16 08:02:56;;;;;;;10.98;5.75;;;0.70;99.90;;;;;;4935073;29;20437;-88
2022/03/16 08:05:24;;;;;;;12.52;6.05;;;0.70;99.90;;;;;;4936404;29;20461;-89
2022/03/16 08:07:51;;;;;;;13.00;6.20;;;0.80;99.90;;;;;;4919232;29;20413;-88
2022/03/16 08:10:19;;;;;;;12.38;6.13;;;0.80;99.90;;;;;;4966673;28;20418;-88
2022/03/16 08:12:47;;;;;;;11.68;6.38;;;0.90;99.90;;;;;;4919011;29;20813;-89
2022/03/16 08:15:15;;;;;;;11.77;6.03;;;1.00;99.90;;;;;;4966604;28;20406;-90
2022/03/16 08:17:42;;;;;;;12.60;6.20;;;1.00;99.90;;;;;;4934682;29;20402;-88
2022/03/16 08:20:10;;;;;;;11.65;5.85;;;1.10;99.90;;;;;;4919066;29;20904;-88
2022/03/16 08:22:38;;;;;;;11.40;6.03;;;1.10;99.90;;;;;;4935454;29;20406;-88
2022/03/16 08:25:08;;;;;;;13.48;6.57;;;1.10;99.90;;;;;;4918380;29;20417;-87
2022/03/16 08:27:37;;;;;;;11.05;6.20;;;1.20;99.90;;;;;;4934303;29;20505;-88
2022/03/16 08:30:07;;;;;;;13.40;6.43;;;1.20;99.90;;;;;;4934013;29;20413;-89
2022/03/16 08:32:34;;;;;;;13.35;6.65;;;1.30;99.90;;;;;;4934399;29;20416;-88
2022/03/16 08:35:06;;;;;;;12.93;6.55;;;1.40;99.90;;;;;;4918434;29;20854;-88
2022/03/16 08:37:34;;;;;;;16.23;6.80;;;1.40;99.90;;;;;;4918869;29;20780;-90
2022/03/16 08:40:04;;;;;;;12.65;6.30;;;1.60;99.90;;;;;;4934283;29;20406;-89
2022/03/16 08:42:31;;;;;;;11.88;6.28;;;1.60;99.90;;;;;;4950067;29;20410;-89
2022/03/16 08:44:59;;;;;;;13.20;6.70;;;1.80;99.90;;;;;;4934334;29;20809;-88
2022/03/16 08:47:26;;;;;;;11.90;6.47;;;1.80;99.90;;;;;;4950112;29;20473;-89
2022/03/16 08:49:55;;;;;;;12.43;5.63;;;1.80;99.90;;;;;;4950464;28;20465;-89
2022/03/16 08:52:23;;;;;;;11.93;6.85;;;1.80;99.90;;;;;;4966067;28;20894;-89
2022/03/16 08:54:51;;;;;;;12.98;6.45;;;1.70;99.90;;;;;;4949783;29;20920;-89
2022/03/16 08:57:21;;;;;;;12.65;6.13;;;1.90;99.90;;;;;;4950360;28;20888;-89
2022/03/16 08:59:49;;;;;;;10.48;5.85;;;2.00;99.90;;;;;;4931092;29;20847;-89
2022/03/16 09:02:17;;;;;;;10.57;5.78;;;2.10;99.90;;;;;;4916262;29;20406;-89
2022/03/16 09:04:45;;;;;;;11.43;5.35;;;2.20;99.90;;;;;;4913567;29;20394;-90
2022/03/16 09:07:12;;;;;;;10.05;5.15;;;2.30;99.90;;;;;;4933979;29;20409;-89
2022/03/16 09:09:40;;;;;;;8.73;5.03;;;2.30;99.90;;;;;;4934111;29;20421;-89
2022/03/16 09:12:09;;;;;;;10.65;5.40;;;2.30;99.90;;;;;;4918673;29;20412;-89
2022/03/16 09:14:37;;;;;;;11.40;5.53;;;2.30;99.90;;;;;;4918541;29;20457;-89
2022/03/16 09:17:06;;;;;;;10.73;5.43;;;2.30;99.90;;;;;;4934132;29;20931;-89
2022/03/16 09:19:34;;;;;;;9.10;4.97;;;2.40;99.90;;;;;;4918525;29;20421;-89
2022/03/16 09:22:04;;;;;;;10.13;5.10;;;2.50;99.90;;;;;;4934195;29;20441;-90
2022/03/16 09:24:32;;;;;;;9.73;4.97;;;2.60;99.90;;;;;;4918285;29;20492;-90
2022/03/16 09:27:01;;;;;;;12.32;5.00;;;2.70;99.90;;;;;;4917755;29;20856;-89
2022/03/16 09:29:29;;;;;;;12.25;4.90;;;2.70;99.90;;;;;;4918310;29;20489;-90
2022/03/16 09:32:06;;;;;;;9.65;4.72;;;2.80;99.90;;;;;;4918559;29;20414;-90
2022/03/16 09:34:34;;;;;;;8.85;4.70;;;2.90;99.90;;;;;;4945384;29;20413;-90
2022/03/16 09:37:01;;;;;;;9.05;4.10;;;3.00;99.90;;;;;;4917974;29;20884;-90
2022/03/16 09:39:29;;;;;;;8.30;4.30;;;3.10;99.90;;;;;;4918010;29;20417;-91
2022/03/16 09:41:58;;;;;;;8.52;4.38;;;3.30;99.90;;;;;;4914396;29;20415;-91
2022/03/16 09:44:30;;;;;;;11.93;4.38;;;3.20;99.90;;;;;;4930465;29;20400;-90
2022/03/16 09:47:00;;;;;;;10.32;4.35;;;3.30;99.90;;;;;;4914535;29;20400;-91
2022/03/16 09:49:28;;;;;;;9.32;4.70;;;3.40;99.90;;;;;;4930289;29;20423;-91
2022/03/16 09:51:57;;;;;;;8.75;4.55;;;3.40;99.90;;;;;;4930553;29;20428;-91
2022/03/16 09:54:25;;;;;;;7.57;4.15;;;3.40;99.90;;;;;;4914628;29;20395;-90
2022/03/16 09:56:54;;;;;;;8.35;4.30;;;3.50;99.90;;;;;;4930119;29;20399;-90
2022/03/16 09:59:22;;;;;;;7.70;3.78;;;3.40;99.90;;;;;;4898923;29;20403;-91
2022/03/16 10:02:07;;;;;;;8.23;3.92;;;3.50;99.90;;;;;;4915379;29;20400;-91
2022/03/16 10:04:36;;;;;;;8.35;4.15;;;3.50;99.90;;;;;;4930189;29;20495;-89
2022/03/16 10:07:05;;;;;;;8.48;4.65;;;3.60;99.90;;;;;;4914655;29;20405;-92
2022/03/16 10:15:19;;;;;;;7.43;3.85;;;3.80;99.90;;;;;;4914506;29;20490;-91
2022/03/16 10:18:01;;;;;;;7.47;4.32;;;4.00;99.90;;;;;;4931719;29;20421;-90
2022/03/16 10:20:39;;;;;;;7.85;4.10;;;3.90;99.90;;;;;;4924844;29;20919;-89
2022/03/16 10:23:16;;;;;;;8.07;3.93;;;3.90;99.90;;;;;;4913297;29;20475;-92
2022/03/16 10:25:45;;;;;;;7.22;4.05;;;4.00;99.90;;;;;;4920520;29;20512;-89
2022/03/16 10:28:24;;;;;;;9.75;4.30;;;4.10;99.90;;;;;;4898568;29;20410;-91
2022/03/16 10:31:02;;;;;;;7.78;4.22;;;4.10;99.90;;;;;;4909029;29;20512;-90
2022/03/16 10:33:34;;;;;;;6.88;3.45;;;4.20;99.90;;;;;;4912116;29;20398;-91
2022/03/16 10:36:05;;;;;;;7.25;3.70;;;4.40;99.90;;;;;;4928606;29;20549;-91
2022/03/16 10:38:43;;;;;;;6.50;3.47;;;4.50;99.90;;;;;;4927591;29;20429;-92
2022/03/16 10:46:50;;;;;;;5.82;2.85;;;4.70;99.90;;;;;;4949086;29;20413;-90
2022/03/16 10:49:20;;;;;;;6.93;2.80;;;4.70;99.90;;;;;;4920833;29;20897;-90
2022/03/16 10:52:15;;;;;;;5.30;2.85;;;4.70;99.90;;;;;;4918685;29;20406;-90
2022/03/16 10:54:44;;;;;;;5.25;2.67;;;4.80;99.90;;;;;;4915673;29;20436;-90
2022/03/16 10:57:13;;;;;;;5.70;2.90;;;4.80;99.90;;;;;;4920315;29;20406;-90
2022/03/16 10:59:49;;;;;;;5.85;2.80;;;4.80;99.90;;;;;;4929394;29;20504;-91
2022/03/16 11:02:19;;;;;;;4.20;2.72;;;4.90;99.90;;;;;;4920848;29;20410;-89
2022/03/16 11:04:50;;;;;;;9.40;3.30;;;4.90;99.90;;;;;;4920580;29;20848;-90
2022/03/16 11:07:19;;;;;;;6.43;3.23;;;5.00;99.90;;;;;;4936168;29;20402;-90
2022/03/16 11:09:48;;;;;;;7.47;3.10;;;5.10;99.90;;;;;;4920544;29;20493;-90
2022/03/16 11:15:11;;;;;;;6.80;3.00;;;5.40;99.90;;;;;;4936025;29;20409;-90
2022/03/16 11:17:40;;;;;;;6.33;3.43;;;5.40;99.90;;;;;;4919407;29;20446;-89
2022/03/16 11:20:09;;;;;;;7.13;3.28;;;5.30;99.90;;;;;;4903951;29;20414;-91
2022/03/16 11:26:03;;;;;;;5.47;3.00;;;5.50;99.90;;;;;;4916626;29;20403;-90
2022/03/16 11:28:38;;;;;;;7.22;3.33;;;5.70;99.90;;;;;;4901413;29;20439;-91
2022/03/16 11:31:12;;;;;;;7.43;3.40;;;5.80;99.90;;;;;;4901531;29;20929;-91
2022/03/16 11:33:53;;;;;;;5.50;3.00;;;5.70;99.90;;;;;;4904061;29;20425;-91
2022/03/16 11:36:34;;;;;;;6.90;3.60;;;5.90;99.90;;;;;;4927368;29;20492;-91
2022/03/16 11:39:17;;;;;;;7.65;3.38;;;5.80;99.90;;;;;;4925225;29;20418;-91
2022/03/16 11:41:57;;;;;;;8.13;3.73;;;5.90;99.90;;;;;;4927970;29;20436;-91
2022/03/16 11:44:28;;;;;;;7.00;3.22;;;6.00;99.90;;;;;;4910583;29;20412;-90
2022/03/16 11:47:10;;;;;;;6.22;3.00;;;5.90;99.90;;;;;;4939791;29;20481;-90
2022/03/16 11:49:45;;;;;;;5.72;3.05;;;6.10;99.90;;;;;;4936204;29;20405;-91
2022/03/16 11:52:13;;;;;;;6.88;2.97;;;6.30;99.90;;;;;;4919590;29;20946;-90
2022/03/16 11:54:51;;;;;;;5.25;2.83;;;6.30;99.90;;;;;;4936412;29;20801;-91
2022/03/16 11:57:58;;;;;;;6.20;3.17;;;6.40;99.90;;;;;;4935373;29;20398;-91
2022/03/16 12:00:26;;;;;;;6.70;3.08;;;6.50;99.90;;;;;;4871938;29;20833;-90
2022/03/16 12:02:59;;;;;;;6.55;3.20;;;6.60;99.90;;;;;;4852777;29;20419;-90
2022/03/16 12:05:30;;;;;;;5.88;3.25;;;6.50;99.90;;;;;;4889864;29;20500;-91
2022/03/16 12:08:14;;;;;;;6.07;3.25;;;6.60;99.90;;;;;;4922722;29;20457;-90
2022/03/16 12:12:50;;;;;;;5.22;3.00;;;6.50;99.90;;;;;;4966318;28;20450;-89
2022/03/16 12:13:47;;;;;;;4.57;2.50;;;6.80;99.90;;;;;;4931897;29;20464;-90
2022/03/16 12:16:19;;;;;;;6.90;3.22;;;6.70;99.90;;;;;;4947230;29;20476;-89
2022/03/16 12:18:47;;;;;;;5.25;2.60;;;6.80;99.90;;;;;;4934826;29;20788;-89
2022/03/16 12:21:14;;;;;;;4.75;2.42;;;7.00;99.90;;;;;;4929567;29;20478;-90
2022/03/16 12:23:58;;;;;;;5.00;2.80;;;7.20;99.90;;;;;;4959597;28;20408;-90
2022/03/16 12:26:28;;;;;;;4.40;2.90;;;7.20;99.90;;;;;;4934204;29;20437;-90
2022/03/16 12:29:06;;;;;;;6.43;3.00;;;7.50;99.90;;;;;;4948142;29;20405;-89
2022/03/16 12:31:42;;;;;;;5.63;2.70;;;7.30;99.90;;;;;;4915478;29;20898;-89
2022/03/16 12:34:14;;;;;;;4.93;2.85;;;7.40;99.90;;;;;;4900244;29;20494;-89
2022/03/16 12:36:42;;;;;;;5.68;3.15;;;7.40;99.90;;;;;;4899847;29;20407;-89
2022/03/16 12:39:13;;;;;;;5.60;2.78;;;7.40;99.90;;;;;;4930592;29;20402;-89
2022/03/16 12:44:41;;;;;;;4.68;2.83;;;7.50;99.90;;;;;;4934200;29;20402;-89
2022/03/16 12:47:25;;;;;;;5.03;2.33;;;7.50;99.90;;;;;;4934148;29;20418;-89
2022/03/16 12:49:54;;;;;;;6.67;2.90;;;7.50;99.90;;;;;;4935552;29;20405;-89
2022/03/16 12:52:22;;;;;;;5.55;2.88;;;7.60;99.90;;;;;;4949793;29;20456;-89
2022/03/16 12:54:53;;;;;;;5.38;2.67;;;7.70;99.90;;;;;;4930833;29;20470;-89
2022/03/16 12:57:21;;;;;;;6.18;2.70;;;7.70;99.90;;;;;;4915243;29;20815;-89
2022/03/16 12:59:53;;;;;;;5.68;2.63;;;7.70;99.90;;;;;;4899461;29;20410;-89
2022/03/16 13:02:23;;;;;;;5.13;2.50;;;7.80;99.90;;;;;;4923872;29;20406;-89
2022/03/16 13:04:53;;;;;;;4.63;2.80;;;7.80;99.90;;;;;;4918589;29;20406;-90
2022/03/16 13:07:22;;;;;;;5.32;2.58;;;7.90;99.90;;;;;;4902612;29;20467;-89
2022/03/16 13:09:49;;;;;;;7.60;2.63;;;7.90;99.90;;;;;;4918235;29;20446;-89
2022/03/16 13:12:17;;;;;;;5.35;2.78;;;7.80;99.90;;;;;;4917217;29;20413;-90
2022/03/16 13:14:47;;;;;;;4.13;2.42;;;7.90;99.90;;;;;;4918925;29;20461;-89
2022/03/16 13:17:16;;;;;;;4.53;2.40;;;7.90;99.90;;;;;;4925043;29;21086;-89
2022/03/16 13:19:48;;;;;;;5.57;2.47;;;8.20;99.90;;;;;;4949468;28;20394;-89